Time;durP1;ratioP1;P1;durP2;ratioP2;P2;SDS_P1;SDS_P2;PMS_P1;PMS_P2;Temp;Humidity;BMP_temperature;BMP_pressure;BME280_temperature;BME280_humidity;BME280_pressure;Samples;Min_cycle;Max_cycle;Signal;HPM_P1;HPM_P2
2021/12/18 00:02:23;;;;;;;12.37;4.13;;;4.90;71.30;;;;;;4964611;28;19907;-85
2021/12/18 00:04:48;;;;;;;;;;;4.90;71.40;;;;;;4965278;28;20023;-86
2021/12/18 00:07:14;;;;;;;17.47;4.70;;;4.90;71.60;;;;;;4972823;28;19910;-86
2021/12/18 00:09:40;;;;;;;;;;;4.80;71.50;;;;;;4965004;28;20081;-86
2021/12/18 00:12:09;;;;;;;11.47;4.50;;;4.80;71.70;;;;;;4965325;28;19914;-84
2021/12/18 00:14:35;;;;;;;11.57;4.00;;;4.80;71.60;;;;;;4961120;28;20027;-85
2021/12/18 00:17:02;;;;;;;;;;;4.80;71.90;;;;;;4951517;28;20021;-85
2021/12/18 00:19:27;;;;;;;12.83;4.10;;;4.80;72.00;;;;;;4980616;28;19925;-86
2021/12/18 00:21:54;;;;;;;12.13;4.80;;;4.80;71.90;;;;;;4964577;28;20278;-83
2021/12/18 00:24:21;;;;;;;10.27;5.67;;;4.80;72.00;;;;;;4955932;29;20024;-85
2021/12/18 00:26:47;;;;;;;14.77;5.90;;;4.70;72.20;;;;;;4953391;29;20074;-86
2021/12/18 00:29:13;;;;;;;13.60;4.77;;;4.70;72.30;;;;;;4952295;28;20040;-85
2021/12/18 00:31:39;;;;;;;16.33;6.83;;;4.70;72.40;;;;;;4965620;28;20031;-85
2021/12/18 00:34:05;;;;;;;;;;;4.70;72.40;;;;;;4975034;28;20042;-86
2021/12/18 00:36:30;;;;;;;14.10;5.00;;;4.70;72.50;;;;;;4964445;28;19911;-86
2021/12/18 00:38:56;;;;;;;;;;;4.80;72.20;;;;;;4953934;28;20023;-86
2021/12/18 00:42:01;;;;;;;17.43;4.67;;;4.80;72.40;;;;;;4969343;28;19949;-86
2021/12/18 00:44:14;;;;;;;12.30;4.70;;;4.80;72.20;;;;;;4974379;28;20046;-85
2021/12/18 00:46:43;;;;;;;12.53;4.20;;;4.80;72.30;;;;;;4962068;28;20113;-85
2021/12/18 00:49:12;;;;;;;13.23;5.30;;;4.70;72.40;;;;;;4961518;28;20100;-86
2021/12/18 00:51:37;;;;;;;23.73;7.53;;;4.80;72.40;;;;;;4960703;28;20027;-84
2021/12/18 00:54:03;;;;;;;;;;;4.80;72.40;;;;;;4946725;28;20038;-85
2021/12/18 00:56:29;;;;;;;14.73;5.53;;;4.80;72.40;;;;;;4977691;28;20041;-85
2021/12/18 00:58:54;;;;;;;10.85;4.40;;;4.80;72.20;;;;;;4942199;29;20163;-85
2021/12/18 01:01:21;;;;;;;;;;;4.80;72.30;;;;;;4948668;28;20480;-85
2021/12/18 01:03:48;;;;;;;17.85;6.03;;;4.80;72.40;;;;;;4961437;28;20006;-86
2021/12/18 01:06:18;;;;;;;16.00;6.87;;;4.80;72.20;;;;;;4947161;28;20035;-85
2021/12/18 01:08:44;;;;;;;13.97;4.70;;;4.80;72.40;;;;;;4944503;29;20042;-86
2021/12/18 01:11:32;;;;;;;;;;;4.80;72.50;;;;;;4953811;28;20102;-85
2021/12/18 01:24:30;;;;;;;13.63;5.10;;;4.80;72.50;;;;;;4964274;28;20039;-85
2021/12/18 01:26:56;;;;;;;;;;;4.80;72.60;;;;;;4951420;29;20064;-85
2021/12/18 01:29:21;;;;;;;9.27;3.43;;;4.80;72.70;;;;;;4957110;29;20023;-85
2021/12/18 01:31:47;;;;;;;15.45;4.50;;;4.80;72.40;;;;;;4941266;29;20027;-84
2021/12/18 01:34:12;;;;;;;;;;;4.80;72.50;;;;;;4952595;28;20118;-86
2021/12/18 01:36:38;;;;;;;15.57;4.73;;;4.80;72.60;;;;;;4963151;28;19950;-85
2021/12/18 01:39:04;;;;;;;;;;;4.80;72.40;;;;;;4974493;28;20058;-86
2021/12/18 01:41:44;;;;;;;17.97;6.27;;;4.80;72.50;;;;;;4957095;29;19972;-86
2021/12/18 01:46:50;;;;;;;29.13;8.90;;;4.80;72.60;;;;;;4971724;28;20101;-86
2021/12/18 01:52:24;;;;;;;21.33;7.50;;;4.80;72.90;;;;;;4958119;29;20130;-84
2021/12/18 01:54:49;;;;;;;17.83;5.17;;;4.80;73.00;;;;;;4955356;28;20030;-86
2021/12/18 01:57:15;;;;;;;;;;;4.80;73.00;;;;;;4968520;28;20031;-86
2021/12/18 01:59:45;;;;;;;15.00;4.87;;;4.80;73.10;;;;;;4976062;28;19913;-86
2021/12/18 02:02:11;;;;;;;16.50;5.30;;;4.80;72.80;;;;;;4959762;28;20027;-85
2021/12/18 02:04:37;;;;;;;;;;;4.80;72.90;;;;;;4959989;28;20491;-85
2021/12/18 02:07:03;;;;;;;12.23;4.97;;;4.80;73.10;;;;;;4976541;28;19910;-86
2021/12/18 02:09:50;;;;;;;14.13;5.00;;;4.80;72.90;;;;;;4951280;28;20082;-85
2021/12/18 02:12:17;;;;;;;12.00;4.20;;;4.80;73.00;;;;;;4958393;28;20093;-86
2021/12/18 02:20:24;;;;;;;10.30;4.43;;;4.80;73.10;;;;;;4957154;28;20063;-84
2021/12/18 02:22:54;;;;;;;13.40;5.90;;;4.80;73.10;;;;;;4939969;29;20042;-86
2021/12/18 02:25:22;;;;;;;14.33;5.17;;;4.80;73.20;;;;;;4940036;29;20027;-87
2021/12/18 02:27:49;;;;;;;12.47;5.33;;;4.80;73.20;;;;;;4948180;29;20506;-86
2021/12/18 02:30:16;;;;;;;17.03;5.30;;;4.80;73.20;;;;;;4942809;29;20135;-85
2021/12/18 02:32:42;;;;;;;16.17;7.20;;;4.80;73.30;;;;;;4939226;29;20042;-86
2021/12/18 02:35:09;;;;;;;;;;;4.80;73.40;;;;;;4957208;29;20404;-84
2021/12/18 02:37:40;;;;;;;;;;;4.80;73.50;;;;;;4955245;29;19934;-86
2021/12/18 02:42:34;;;;;;;;;;;4.70;73.30;;;;;;4957396;29;19907;-86
2021/12/18 02:45:06;;;;;;;;;;;4.70;73.40;;;;;;4950714;28;19929;-85
2021/12/18 02:47:31;;;;;;;;;;;4.70;73.40;;;;;;4955966;29;19942;-85
2021/12/18 02:49:56;;;;;;;;;;;4.70;73.40;;;;;;4947748;29;19960;-86
2021/12/18 02:52:27;;;;;;;;;;;4.70;73.40;;;;;;4951049;29;19914;-84
2021/12/18 02:54:52;;;;;;;;;;;4.70;73.30;;;;;;4939505;29;19913;-84
2021/12/18 02:57:18;;;;;;;;;;;4.70;73.30;;;;;;4939388;29;20332;-85
2021/12/18 02:59:44;;;;;;;;;;;4.70;73.30;;;;;;4946749;29;19982;-85
2021/12/18 03:02:11;;;;;;;;;;;4.70;73.30;;;;;;4955899;29;19910;-85
2021/12/18 03:04:38;;;;;;;;;;;4.70;73.30;;;;;;4949507;29;19933;-85
2021/12/18 03:07:06;;;;;;;;;;;4.70;73.30;;;;;;4939540;29;19910;-85
2021/12/18 03:18:56;;;;;;;;;;;4.70;73.40;;;;;;4956731;28;19986;-85
2021/12/18 03:25:54;;;;;;;;;;;4.60;73.50;;;;;;4956963;29;19977;-85
2021/12/18 03:28:20;;;;;;;;;;;4.60;73.50;;;;;;4945059;29;19913;-86
2021/12/18 03:30:45;;;;;;;;;;;4.60;73.50;;;;;;4939754;29;20263;-86
2021/12/18 03:33:11;;;;;;;;;;;4.60;73.60;;;;;;4939552;29;19914;-85
2021/12/18 03:35:36;;;;;;;;;;;4.60;73.60;;;;;;4956798;29;19916;-85
2021/12/18 03:38:02;;;;;;;;;;;4.60;73.50;;;;;;4939419;29;19938;-85
2021/12/18 03:40:27;;;;;;;;;;;4.60;73.60;;;;;;4950647;29;20351;-87
2021/12/18 03:42:53;;;;;;;;;;;4.60;73.60;;;;;;4954690;29;19907;-86
2021/12/18 03:45:22;;;;;;;;;;;4.60;73.60;;;;;;4945973;29;19917;-85
2021/12/18 03:47:48;;;;;;;;;;;4.60;73.60;;;;;;4939182;29;19917;-85
2021/12/18 03:50:14;;;;;;;;;;;4.60;73.60;;;;;;4939996;29;20059;-84
2021/12/18 03:52:40;;;;;;;;;;;4.60;73.60;;;;;;4956680;29;20008;-85
2021/12/18 03:55:06;;;;;;;;;;;4.60;73.60;;;;;;4953906;29;20001;-85
2021/12/18 03:57:33;;;;;;;;;;;4.60;73.60;;;;;;4954853;29;19997;-85
2021/12/18 03:59:59;;;;;;;;;;;4.70;73.60;;;;;;4946566;29;20271;-86
2021/12/18 04:02:25;;;;;;;;;;;4.70;73.60;;;;;;4945874;29;19910;-85
2021/12/18 04:04:50;;;;;;;;;;;4.70;73.60;;;;;;4939003;29;20005;-85
2021/12/18 04:07:16;;;;;;;;;;;4.70;73.60;;;;;;4946941;29;20343;-85
2021/12/18 04:09:41;;;;;;;;;;;4.70;73.50;;;;;;4950395;29;19913;-85
2021/12/18 04:12:07;;;;;;;;;;;4.70;73.50;;;;;;4955089;29;19914;-84
2021/12/18 04:14:33;;;;;;;;;;;4.70;73.60;;;;;;4945254;29;19911;-86
2021/12/18 04:16:58;;;;;;;;;;;4.70;73.60;;;;;;4956002;29;20342;-86
2021/12/18 04:19:23;;;;;;;;;;;4.70;73.50;;;;;;4954128;29;19914;-86
2021/12/18 04:21:49;;;;;;;;;;;4.70;73.60;;;;;;4957152;28;19914;-86
2021/12/18 04:24:14;;;;;;;;;;;4.70;73.60;;;;;;4956953;29;19917;-85
2021/12/18 04:26:40;;;;;;;;;;;4.70;73.60;;;;;;4959873;29;20271;-85
2021/12/18 04:29:06;;;;;;;;;;;4.70;73.60;;;;;;4950617;29;19918;-86
2021/12/18 04:31:32;;;;;;;;;;;4.60;73.70;;;;;;4942974;29;19910;-84
2021/12/18 04:33:58;;;;;;;;;;;4.60;73.70;;;;;;4946304;29;19922;-85
2021/12/18 04:36:23;;;;;;;;;;;4.60;73.80;;;;;;4957361;29;20419;-84
2021/12/18 04:38:49;;;;;;;;;;;4.60;73.80;;;;;;4955593;29;19917;-84
2021/12/18 04:41:23;;;;;;;;;;;4.60;73.90;;;;;;4947826;29;19957;-82
2021/12/18 04:43:49;;;;;;;;;;;4.50;73.90;;;;;;4959115;29;20385;-84
2021/12/18 04:46:15;;;;;;;;;;;4.50;73.90;;;;;;4944225;29;19910;-85
2021/12/18 04:48:40;;;;;;;;;;;4.50;74.00;;;;;;4942081;29;19957;-85
2021/12/18 04:51:05;;;;;;;;;;;4.50;74.00;;;;;;4950246;29;20336;-85
2021/12/18 04:53:31;;;;;;;;;;;4.50;74.00;;;;;;4957353;29;19946;-84
2021/12/18 04:55:56;;;;;;;;;;;4.50;74.00;;;;;;4941994;29;19910;-84
2021/12/18 04:58:22;;;;;;;;;;;4.50;74.00;;;;;;4947251;29;19910;-86
2021/12/18 05:00:48;;;;;;;;;;;4.50;74.10;;;;;;4948979;29;19914;-86
2021/12/18 05:03:14;;;;;;;;;;;4.40;74.10;;;;;;4946589;29;19911;-87
2021/12/18 05:05:40;;;;;;;;;;;4.40;74.20;;;;;;4958055;29;19910;-86
2021/12/18 05:08:06;;;;;;;;;;;4.40;74.30;;;;;;4945534;29;19917;-85
2021/12/18 05:10:31;;;;;;;;;;;4.40;74.30;;;;;;4959225;29;19966;-86
2021/12/18 05:12:56;;;;;;;;;;;4.30;74.40;;;;;;4957870;29;19918;-86
2021/12/18 05:15:22;;;;;;;;;;;4.30;74.40;;;;;;4957937;29;19907;-86
2021/12/18 05:17:47;;;;;;;;;;;4.40;74.50;;;;;;4958037;29;19930;-86
2021/12/18 05:20:13;;;;;;;;;;;4.30;74.50;;;;;;4953747;29;20281;-85
2021/12/18 05:22:39;;;;;;;;;;;4.30;74.40;;;;;;4949245;29;19934;-85
2021/12/18 05:25:05;;;;;;;;;;;4.40;74.40;;;;;;4942128;29;20410;-85
2021/12/18 05:27:31;;;;;;;;;;;4.30;74.40;;;;;;4941532;29;20005;-85
2021/12/18 05:29:57;;;;;;;;;;;4.40;74.40;;;;;;4941948;29;19958;-86
2021/12/18 05:32:22;;;;;;;;;;;4.40;74.40;;;;;;4941119;29;19915;-86
2021/12/18 05:34:47;;;;;;;;;;;4.40;74.40;;;;;;4947809;29;19970;-85
2021/12/18 05:37:18;;;;;;;;;;;4.40;74.40;;;;;;4941798;29;19918;-85
2021/12/18 05:39:44;;;;;;;;;;;4.40;74.40;;;;;;4949098;29;19958;-85
2021/12/18 05:42:09;;;;;;;;;;;4.40;74.40;;;;;;4947547;29;19923;-86
2021/12/18 05:44:35;;;;;;;;;;;4.40;74.40;;;;;;4940925;29;19915;-85
2021/12/18 05:47:01;;;;;;;;;;;4.40;74.40;;;;;;4958222;29;19907;-86
2021/12/18 05:49:27;;;;;;;;;;;4.40;74.50;;;;;;4958288;29;20041;-86
2021/12/18 05:51:52;;;;;;;;;;;4.30;74.50;;;;;;4940721;29;19989;-86
2021/12/18 05:54:18;;;;;;;;;;;4.30;74.50;;;;;;4957247;29;19922;-85
2021/12/18 05:56:43;;;;;;;;;;;4.30;74.50;;;;;;4943396;29;19906;-84
2021/12/18 05:59:09;;;;;;;;;;;4.30;74.50;;;;;;4949813;29;20264;-85
2021/12/18 06:01:35;;;;;;;;;;;4.30;74.50;;;;;;4952572;29;19989;-85
2021/12/18 06:04:00;;;;;;;;;;;4.30;74.50;;;;;;4955829;29;19911;-85
2021/12/18 06:06:26;;;;;;;;;;;4.30;74.50;;;;;;4946319;29;19917;-85
2021/12/18 06:08:52;;;;;;;;;;;4.30;74.50;;;;;;4957996;29;19910;-85
2021/12/18 06:11:20;;;;;;;;;;;4.30;74.50;;;;;;4949773;29;19920;-85
2021/12/18 06:13:54;;;;;;;;;;;4.30;74.40;;;;;;4943857;29;19918;-85
2021/12/18 06:16:20;;;;;;;;;;;4.30;74.30;;;;;;4942028;29;19953;-84
2021/12/18 06:18:50;;;;;;;;;;;4.30;74.30;;;;;;4957812;29;19933;-85
2021/12/18 06:21:16;;;;;;;;;;;4.30;74.40;;;;;;4955754;29;19914;-85
2021/12/18 06:23:42;;;;;;;;;;;4.30;74.40;;;;;;4952113;29;19917;-85
2021/12/18 06:26:08;;;;;;;;;;;4.30;74.40;;;;;;4947377;29;19917;-85
2021/12/18 06:28:34;;;;;;;;;;;4.30;74.40;;;;;;4970031;28;19910;-86
2021/12/18 06:31:01;;;;;;;;;;;4.30;74.40;;;;;;4940510;29;20331;-84
2021/12/18 06:33:26;;;;;;;;;;;4.30;74.40;;;;;;4949359;29;20402;-85
2021/12/18 06:35:52;;;;;;;;;;;4.30;74.30;;;;;;4940235;29;19907;-85
2021/12/18 06:38:17;;;;;;;;;;;4.30;74.30;;;;;;4957116;29;19913;-85
2021/12/18 06:43:50;;;;;;;;;;;4.30;74.20;;;;;;4957103;28;19918;-85
2021/12/18 06:46:16;;;;;;;;;;;4.30;74.20;;;;;;4939769;29;19973;-85
2021/12/18 06:48:41;;;;;;;;;;;4.30;74.10;;;;;;4942168;29;19936;-85
2021/12/18 06:51:07;;;;;;;;;;;4.30;74.10;;;;;;4939911;29;19993;-85
2021/12/18 06:53:32;;;;;;;;;;;4.30;74.10;;;;;;4972384;28;20331;-84
2021/12/18 06:55:58;;;;;;;;;;;4.30;74.10;;;;;;4959734;28;19952;-85
2021/12/18 06:58:23;;;;;;;;;;;4.40;74.10;;;;;;4940084;29;19906;-86
2021/12/18 07:00:49;;;;;;;;;;;4.40;74.10;;;;;;4957032;29;19913;-86
2021/12/18 07:03:14;;;;;;;;;;;4.40;74.00;;;;;;4953438;29;19922;-86
2021/12/18 07:05:40;;;;;;;;;;;4.40;74.00;;;;;;4957275;29;19906;-86
2021/12/18 07:08:05;;;;;;;;;;;4.40;74.00;;;;;;4944367;29;20344;-86
2021/12/18 07:10:31;;;;;;;;;;;4.40;74.00;;;;;;4957043;28;19935;-86
2021/12/18 07:12:57;;;;;;;;;;;4.40;74.00;;;;;;4960962;28;20324;-86
2021/12/18 07:15:22;;;;;;;;;;;4.50;74.00;;;;;;4939979;29;19906;-85
2021/12/18 07:17:48;;;;;;;;;;;4.50;74.10;;;;;;4962246;28;19965;-85
2021/12/18 07:20:14;;;;;;;;;;;4.40;74.00;;;;;;4947106;29;19910;-86
2021/12/18 07:22:39;;;;;;;;;;;4.40;74.10;;;;;;4947504;29;19917;-86
2021/12/18 07:25:05;;;;;;;;;;;4.50;74.10;;;;;;4951053;29;19913;-86
2021/12/18 07:27:31;;;;;;;;;;;4.40;74.10;;;;;;4940445;29;20276;-85
2021/12/18 07:29:56;;;;;;;;;;;4.50;74.10;;;;;;4941727;29;19907;-85
2021/12/18 07:32:22;;;;;;;;;;;4.40;74.10;;;;;;4955215;29;20394;-83
2021/12/18 07:34:49;;;;;;;;;;;4.50;74.10;;;;;;4947110;29;20352;-85
2021/12/18 07:37:14;;;;;;;;;;;4.50;74.20;;;;;;4949037;29;20394;-89
2021/12/18 07:39:40;;;;;;;;;;;4.50;74.20;;;;;;4944067;29;19910;-90
2021/12/18 07:42:08;;;;;;;;;;;4.40;74.20;;;;;;4944048;29;19907;-89
2021/12/18 07:44:34;;;;;;;;;;;4.50;74.20;;;;;;4943247;29;19949;-90
2021/12/18 07:47:00;;;;;;;;;;;4.50;74.00;;;;;;4942765;29;19913;-85
2021/12/18 07:49:25;;;;;;;;;;;4.50;73.80;;;;;;4945917;29;20458;-84
2021/12/18 07:51:54;;;;;;;;;;;4.50;73.50;;;;;;4955049;29;20271;-82
2021/12/18 07:54:19;;;;;;;;;;;4.50;73.50;;;;;;4954528;29;19910;-84
2021/12/18 07:56:45;;;;;;;;;;;4.50;73.40;;;;;;4950636;28;19917;-82
2021/12/18 07:59:10;;;;;;;;;;;4.60;73.40;;;;;;4950495;29;19910;-83
2021/12/18 08:01:36;;;;;;;;;;;4.70;73.20;;;;;;4948256;29;19917;-83
2021/12/18 08:04:01;;;;;;;;;;;4.70;73.00;;;;;;4950551;29;19933;-83
2021/12/18 08:06:27;;;;;;;;;;;4.70;72.90;;;;;;4947074;29;19914;-82
2021/12/18 08:08:52;;;;;;;;;;;4.80;72.80;;;;;;4958809;29;19906;-83
2021/12/18 08:11:18;;;;;;;;;;;4.80;72.50;;;;;;4948177;29;19918;-82
2021/12/18 08:13:43;;;;;;;;;;;4.80;72.30;;;;;;4949808;29;19919;-84
2021/12/18 08:16:09;;;;;;;;;;;4.90;72.10;;;;;;4944427;29;19964;-86
2021/12/18 08:18:35;;;;;;;;;;;4.90;72.00;;;;;;4942767;29;19917;-83
2021/12/18 08:21:00;;;;;;;;;;;5.00;71.90;;;;;;4951119;29;20037;-90
2021/12/18 08:23:25;;;;;;;;;;;5.00;71.90;;;;;;4954906;29;19921;-87
2021/12/18 08:25:52;;;;;;;;;;;5.00;71.90;;;;;;4952850;29;19911;-86
2021/12/18 08:28:18;;;;;;;;;;;5.10;71.90;;;;;;4959403;29;19970;-87
2021/12/18 08:30:43;;;;;;;;;;;5.10;71.80;;;;;;4951705;29;19910;-86
2021/12/18 08:33:09;;;;;;;;;;;5.20;71.40;;;;;;4960252;29;20398;-87
2021/12/18 08:35:35;;;;;;;;;;;5.20;71.20;;;;;;4956396;29;19917;-86
2021/12/18 08:38:01;;;;;;;;;;;5.30;71.20;;;;;;4957893;29;19917;-88
2021/12/18 08:40:27;;;;;;;;;;;5.40;71.10;;;;;;4953397;29;19914;-88
2021/12/18 08:42:53;;;;;;;;;;;5.50;70.70;;;;;;4955649;28;19916;-87
2021/12/18 08:45:19;;;;;;;;;;;5.40;70.40;;;;;;4957855;29;19915;-88
2021/12/18 08:47:47;;;;;;;;;;;5.40;70.20;;;;;;4951332;29;19910;-84
2021/12/18 08:50:18;;;;;;;;;;;5.40;70.00;;;;;;4950684;29;19945;-83
2021/12/18 08:52:48;;;;;;;;;;;5.40;69.90;;;;;;4952151;29;19914;-83
2021/12/18 08:55:14;;;;;;;;;;;5.40;69.70;;;;;;4943693;29;19965;-84
2021/12/18 08:57:39;;;;;;;;;;;5.40;69.80;;;;;;4952202;29;19989;-85
2021/12/18 09:00:06;;;;;;;;;;;5.50;69.80;;;;;;4948362;29;20344;-84
2021/12/18 09:02:31;;;;;;;;;;;5.60;69.90;;;;;;4959775;29;19933;-84
2021/12/18 09:04:57;;;;;;;;;;;5.60;69.70;;;;;;4946642;29;19914;-84
2021/12/18 09:07:25;;;;;;;;;;;5.60;69.40;;;;;;4952299;29;19918;-85
2021/12/18 09:09:50;;;;;;;;;;;5.70;69.10;;;;;;4944090;29;19942;-85
2021/12/18 09:12:16;;;;;;;;;;;5.60;68.60;;;;;;4944274;29;19907;-84
2021/12/18 09:14:42;;;;;;;;;;;5.60;68.00;;;;;;4944194;29;19973;-87
2021/12/18 09:17:08;;;;;;;;;;;5.60;68.20;;;;;;4943479;29;19911;-84
2021/12/18 09:19:33;;;;;;;;;;;5.70;68.00;;;;;;4957709;29;20280;-84
2021/12/18 09:21:59;;;;;;;;;;;5.60;67.40;;;;;;4957928;29;19921;-84
2021/12/18 09:24:25;;;;;;;;;;;5.60;67.30;;;;;;4944134;29;19973;-85
2021/12/18 09:26:51;;;;;;;;;;;5.50;67.40;;;;;;4942805;29;19914;-84
2021/12/18 09:29:18;;;;;;;;;;;5.50;67.40;;;;;;4946507;29;20230;-87
2021/12/18 09:31:44;;;;;;;;;;;5.50;67.50;;;;;;4956872;28;20411;-82
2021/12/18 09:34:09;;;;;;;;;;;5.40;67.50;;;;;;4956651;29;20009;-82
2021/12/18 09:36:35;;;;;;;;;;;5.50;67.70;;;;;;4956299;29;19911;-83
2021/12/18 09:39:01;;;;;;;;;;;5.60;67.60;;;;;;4954942;29;19974;-83
2021/12/18 09:41:27;;;;;;;;;;;5.50;67.30;;;;;;4953809;29;20445;-84
2021/12/18 09:43:52;;;;;;;;;;;5.50;67.30;;;;;;4957102;29;19906;-84
2021/12/18 09:46:18;;;;;;;;;;;5.50;67.40;;;;;;4956986;29;20336;-84
2021/12/18 09:48:45;;;;;;;;;;;5.50;67.30;;;;;;4948776;29;19957;-84
2021/12/18 09:51:20;;;;;;;;;;;5.50;67.20;;;;;;4941588;29;19910;-83
2021/12/18 09:53:46;;;;;;;;;;;5.50;67.20;;;;;;4957872;29;20346;-84
2021/12/18 09:56:11;;;;;;;;;;;5.50;67.30;;;;;;4957822;29;19906;-89
2021/12/18 09:58:37;;;;;;;;;;;5.50;67.10;;;;;;4947292;29;19969;-84
2021/12/18 10:01:03;;;;;;;;;;;5.50;67.10;;;;;;4954861;29;19967;-86
2021/12/18 10:03:48;;;;;;;;;;;5.50;67.00;;;;;;4953727;29;19945;-85
2021/12/18 10:06:27;;;;;;;;;;;5.50;67.10;;;;;;4950807;29;19965;-88
2021/12/18 10:08:53;;;;;;;;;;;5.50;66.50;;;;;;4955428;29;19917;-87
2021/12/18 10:11:18;;;;;;;;;;;5.50;66.30;;;;;;4943329;29;20287;-87
2021/12/18 10:13:50;;;;;;;;;;;5.50;66.30;;;;;;4945765;29;19915;-85
2021/12/18 10:16:16;;;;;;;;;;;5.50;66.40;;;;;;4957146;29;19910;-85
2021/12/18 10:18:41;;;;;;;;;;;5.50;66.50;;;;;;4956578;28;19984;-84
2021/12/18 10:21:11;;;;;;;;;;;5.60;66.60;;;;;;4964192;28;19918;-84
2021/12/18 10:23:37;;;;;;;;;;;5.60;66.60;;;;;;4958993;28;19915;-83
2021/12/18 10:26:02;;;;;;;;;;;5.60;66.20;;;;;;4965374;28;20001;-85
2021/12/18 10:28:41;;;;;;;;;;;5.60;65.90;;;;;;4969429;28;19961;-84
2021/12/18 10:31:07;;;;;;;;;;;5.60;65.70;;;;;;4961619;28;19914;-85
2021/12/18 10:33:35;;;;;;;;;;;5.60;66.00;;;;;;4965137;28;19989;-84
2021/12/18 10:36:01;;;;;;;;;;;5.50;66.20;;;;;;4965287;28;19914;-84
2021/12/18 10:38:39;;;;;;;;;;;5.50;66.20;;;;;;4958938;28;19911;-85
2021/12/18 10:41:25;;;;;;;;;;;5.60;65.80;;;;;;4969247;28;20359;-84
2021/12/18 10:44:10;;;;;;;;;;;5.50;66.00;;;;;;4956093;28;19950;-85
2021/12/18 10:46:45;;;;;;;;;;;5.50;66.00;;;;;;4961272;28;19933;-85
2021/12/18 10:49:18;;;;;;;;;;;5.40;66.20;;;;;;4965008;28;19914;-85
2021/12/18 10:51:44;;;;;;;;;;;5.40;66.20;;;;;;4964455;28;19938;-85
2021/12/18 10:54:14;;;;;;;;;;;5.40;66.30;;;;;;4958943;28;20009;-84
2021/12/18 10:56:41;;;;;;;;;;;5.40;66.30;;;;;;4969882;28;19910;-84
2021/12/18 10:59:20;;;;;;;;;;;5.40;66.40;;;;;;4962108;28;19910;-84
2021/12/18 11:01:52;;;;;;;;;;;5.40;66.30;;;;;;4962221;28;19957;-83
2021/12/18 11:04:22;;;;;;;;;;;5.40;66.50;;;;;;4957590;28;19914;-85
2021/12/18 11:06:49;;;;;;;;;;;5.40;66.50;;;;;;4966280;28;20344;-84
2021/12/18 11:09:17;;;;;;;;;;;5.40;66.50;;;;;;4958865;28;19911;-84
2021/12/18 11:14:12;;;;;;;;;;;5.40;66.50;;;;;;4973888;28;19946;-84
2021/12/18 11:16:39;;;;;;;;;;;5.40;66.50;;;;;;4963369;28;19958;-85
2021/12/18 11:19:12;;;;;;;;;;;5.40;66.60;;;;;;4964334;28;19910;-86
2021/12/18 11:21:38;;;;;;;;;;;5.50;66.60;;;;;;4962677;28;20379;-85
2021/12/18 11:24:09;;;;;;;;;;;5.60;66.20;;;;;;4958049;28;20312;-85
2021/12/18 11:26:41;;;;;;;;;;;5.60;66.10;;;;;;4961338;28;20285;-86
2021/12/18 11:29:20;;;;;;;;;;;5.60;66.10;;;;;;4955950;28;20336;-84
2021/12/18 11:31:49;;;;;;;;;;;5.70;65.90;;;;;;4961167;28;19910;-84
2021/12/18 11:34:15;;;;;;;;;;;5.70;66.10;;;;;;4967297;28;20012;-86
2021/12/18 11:36:43;;;;;;;;;;;5.80;66.00;;;;;;4958670;28;19910;-85
2021/12/18 11:39:09;;;;;;;;;;;5.80;66.00;;;;;;4968714;28;19911;-86
2021/12/18 11:41:35;;;;;;;;;;;5.80;66.00;;;;;;4968874;28;19918;-84
2021/12/18 11:44:03;;;;;;;;;;;5.80;65.80;;;;;;4959502;28;19914;-84
2021/12/18 11:46:30;;;;;;;;;;;5.80;65.90;;;;;;4961870;28;19917;-85
2021/12/18 11:48:58;;;;;;;;;;;5.80;65.90;;;;;;4963407;28;19914;-85
2021/12/18 11:51:23;;;;;;;;;;;5.80;66.00;;;;;;4953494;28;19906;-84
2021/12/18 11:53:49;;;;;;;;;;;5.80;65.80;;;;;;4961813;28;19945;-85
2021/12/18 11:56:14;;;;;;;;;;;5.80;66.00;;;;;;4946068;29;19986;-84
2021/12/18 11:58:41;;;;;;;;;;;5.80;66.10;;;;;;4946417;29;19917;-90
2021/12/18 12:01:19;;;;;;;;;;;5.80;66.30;;;;;;4963959;28;19930;-89
2021/12/18 12:03:44;;;;;;;;;;;5.90;65.90;;;;;;4947192;29;20006;-90
2021/12/18 12:06:20;;;;;;;;;;;5.80;65.60;;;;;;4947961;29;19949;-90
2021/12/18 12:08:51;;;;;;;;;;;5.70;65.80;;;;;;4946164;29;19917;-90
2021/12/18 12:11:23;;;;;;;;;;;5.80;66.10;;;;;;4949908;29;19938;-89
2021/12/18 12:14:08;;;;;;;;;;;5.80;66.30;;;;;;4942355;29;19925;-89
2021/12/18 12:16:46;;;;;;;;;;;5.80;66.20;;;;;;4956872;28;19918;-89
2021/12/18 12:19:19;;;;;;;;;;;5.80;66.00;;;;;;4958558;28;19918;-89
2021/12/18 12:21:44;;;;;;;;;;;5.80;66.20;;;;;;4950713;29;19914;-89
2021/12/18 12:24:10;;;;;;;;;;;5.80;66.10;;;;;;4950874;29;19965;-90
2021/12/18 12:26:36;;;;;;;;;;;5.80;66.10;;;;;;4971056;28;19934;-89
2021/12/18 12:29:03;;;;;;;;;;;5.80;66.20;;;;;;4969768;28;19917;-89
2021/12/18 12:31:29;;;;;;;;;;;5.90;66.20;;;;;;4971448;28;19953;-90
2021/12/18 12:34:13;;;;;;;;;;;5.90;66.00;;;;;;4967893;28;19925;-87
2021/12/18 12:36:45;;;;;;;;;;;5.80;66.00;;;;;;4971476;28;19910;-85
2021/12/18 12:39:11;;;;;;;;;;;5.80;66.10;;;;;;4968651;28;19914;-85
2021/12/18 12:41:40;;;;;;;;;;;5.80;66.10;;;;;;4975612;28;19927;-85
2021/12/18 12:44:11;;;;;;;;;;;5.80;66.20;;;;;;4968251;28;19910;-85
2021/12/18 12:46:37;;;;;;;;;;;5.80;66.20;;;;;;4967883;28;19917;-86
2021/12/18 12:49:04;;;;;;;;;;;5.90;66.30;;;;;;4959996;29;20323;-85
2021/12/18 12:51:49;;;;;;;;;;;5.90;66.30;;;;;;4973665;28;19910;-84
2021/12/18 12:54:33;;;;;;;;;;;6.00;65.90;;;;;;4956071;29;19969;-84
2021/12/18 12:57:17;;;;;;;;;;;5.90;66.00;;;;;;4968912;28;20401;-86
2021/12/18 12:59:43;;;;;;;;;;;5.90;66.00;;;;;;4953715;29;19914;-85
2021/12/18 13:02:08;;;;;;;;;;;5.90;66.00;;;;;;4979093;28;19941;-87
2021/12/18 13:04:34;;;;;;;;;;;5.80;66.10;;;;;;4965889;29;19906;-87
2021/12/18 13:07:06;;;;;;;;;;;5.80;66.30;;;;;;4982573;28;20008;-85
2021/12/18 13:09:35;;;;;;;;;;;5.80;66.40;;;;;;4981693;28;20371;-86
2021/12/18 13:12:04;;;;;;;;;;;5.80;66.50;;;;;;4963619;29;19918;-86
2021/12/18 13:14:49;;;;;;;;;;;5.80;66.60;;;;;;4966123;28;20291;-85
2021/12/18 13:17:22;;;;;;;;;;;5.80;66.80;;;;;;4980741;28;19906;-85
2021/12/18 13:20:02;;;;;;;;;;;5.80;66.70;;;;;;4980431;28;19939;-87
2021/12/18 13:22:33;;;;;;;;;;;5.70;66.90;;;;;;4965657;29;20283;-85
2021/12/18 13:25:01;;;;;;;;;;;5.70;66.90;;;;;;4964100;28;19914;-87
2021/12/18 13:27:27;;;;;;;;;;;5.70;67.00;;;;;;4951381;29;20274;-86
2021/12/18 13:30:11;;;;;;;;;;;5.70;67.10;;;;;;4970548;28;19954;-85
2021/12/18 13:32:39;;;;;;;;;;;5.70;67.30;;;;;;4944530;29;20006;-85
2021/12/18 13:35:14;;;;;;;;;;;5.70;67.50;;;;;;4958790;29;19997;-86
2021/12/18 13:37:53;;;;;;;;;;;5.60;67.70;;;;;;4974447;28;19909;-85
2021/12/18 13:40:18;;;;;;;;;;;5.50;67.80;;;;;;4964665;28;19910;-87
2021/12/18 13:42:47;;;;;;;;;;;5.50;68.20;;;;;;4942197;29;19913;-86
2021/12/18 13:45:12;;;;;;;;;;;5.40;68.40;;;;;;4966374;28;19989;-85
2021/12/18 13:47:39;;;;;;;;;;;5.40;68.60;;;;;;4975173;28;19949;-85
2021/12/18 13:50:17;;;;;;;;;;;5.40;68.80;;;;;;4974263;28;19906;-85
2021/12/18 13:52:45;;;;;;;;;;;5.40;68.90;;;;;;4973729;28;19911;-86
2021/12/18 13:55:26;;;;;;;;;;;5.40;69.00;;;;;;4973523;28;19997;-85
2021/12/18 13:57:57;;;;;;;;;;;5.40;69.20;;;;;;4958907;29;19906;-86
2021/12/18 14:00:23;;;;;;;;;;;5.30;69.20;;;;;;4973630;28;20407;-86
2021/12/18 14:02:48;;;;;;;;;;;5.40;69.40;;;;;;4974014;28;19957;-86
2021/12/18 14:05:14;;;;;;;;;;;5.30;69.40;;;;;;4973754;28;20315;-86
2021/12/18 14:07:40;;;;;;;;;;;5.30;69.50;;;;;;4973787;28;19914;-85
2021/12/18 14:10:07;;;;;;;;;;;5.30;69.70;;;;;;4973867;28;19906;-85
2021/12/18 14:12:33;;;;;;;;;;;5.30;69.70;;;;;;4966559;28;19918;-87
2021/12/18 14:14:59;;;;;;;;;;;5.30;69.80;;;;;;4980946;28;19930;-89
2021/12/18 14:17:25;;;;;;;;;;;5.30;69.90;;;;;;4975616;28;20344;-88
2021/12/18 14:19:53;;;;;;;;;;;5.30;70.00;;;;;;4966008;28;19910;-85
2021/12/18 14:22:23;;;;;;;;;;;5.30;70.10;;;;;;4969025;28;19914;-85
2021/12/18 14:24:57;;;;;;;;;;;5.30;70.10;;;;;;4959217;29;19906;-85
2021/12/18 14:27:23;;;;;;;;;;;5.30;70.20;;;;;;4957885;29;19946;-85
2021/12/18 14:29:50;;;;;;;;;;;5.30;70.30;;;;;;4940754;29;19913;-85
2021/12/18 14:32:16;;;;;;;;;;;5.30;70.30;;;;;;4958154;29;19906;-87
2021/12/18 14:34:43;;;;;;;;;;;5.20;70.30;;;;;;4958037;29;19910;-86
2021/12/18 14:37:10;;;;;;;;;;;5.30;70.30;;;;;;4957706;29;19907;-84
2021/12/18 14:39:37;;;;;;;;;;;5.30;70.40;;;;;;4957363;29;19906;-85
2021/12/18 14:42:05;;;;;;;;;;;5.30;70.50;;;;;;4958280;29;19906;-84
2021/12/18 14:44:32;;;;;;;;;;;5.30;70.60;;;;;;4942731;29;19906;-89
2021/12/18 14:47:08;;;;;;;;;;;5.20;70.50;;;;;;4950855;29;19942;-86
2021/12/18 14:49:34;;;;;;;;;;;5.20;70.60;;;;;;4972681;28;19953;-87
2021/12/18 14:52:01;;;;;;;;;;;5.30;70.70;;;;;;4976180;28;19910;-88
2021/12/18 14:54:26;;;;;;;;;;;5.30;70.80;;;;;;4974555;28;19914;-88
2021/12/18 14:57:12;;;;;;;;;;;5.30;70.80;;;;;;4944449;29;19921;-87
2021/12/18 14:59:37;;;;;;;;;;;5.30;70.80;;;;;;4959614;29;19911;-86
2021/12/18 15:02:03;;;;;;;;;;;5.20;70.80;;;;;;4966240;28;19918;-87
2021/12/18 15:04:28;;;;;;;;;;;5.20;71.00;;;;;;4943186;28;19993;-86